sensor_id;sensor_type;location;lat;lon;timestamp;temperature;humidity
12384;DHT22;6256;63.808;20.336;2024-01-07T00:02:05;-17.50;99.90
12384;DHT22;6256;63.808;20.336;2024-01-07T00:04:30;-17.60;99.90
12384;DHT22;6256;63.808;20.336;2024-01-07T00:06:56;-17.60;99.90
12384;DHT22;6256;63.808;20.336;2024-01-07T00:09:22;-17.60;99.90
12384;DHT22;6256;63.808;20.336;2024-01-07T00:11:47;-17.60;99.90
12384;DHT22;6256;63.808;20.336;2024-01-07T00:14:15;-17.60;99.90
12384;DHT22;6256;63.808;20.336;2024-01-07T00:16:41;-17.70;99.90
12384;DHT22;6256;63.808;20.336;2024-01-07T00:19:07;-17.60;99.90
12384;DHT22;6256;63.808;20.336;2024-01-07T00:21:34;-17.70;99.90
12384;DHT22;6256;63.808;20.336;2024-01-07T00:24:00;-17.60;99.90
12384;DHT22;6256;63.808;20.336;2024-01-07T00:26:25;-17.60;99.90
12384;DHT22;6256;63.808;20.336;2024-01-07T00:28:51;-17.60;99.90
12384;DHT22;6256;63.808;20.336;2024-01-07T00:31:17;-17.70;99.90
12384;DHT22;6256;63.808;20.336;2024-01-07T00:33:43;-17.70;99.90
12384;DHT22;6256;63.808;20.336;2024-01-07T00:36:08;-17.70;99.90
12384;DHT22;6256;63.808;20.336;2024-01-07T00:38:34;-17.70;99.90
12384;DHT22;6256;63.808;20.336;2024-01-07T00:40:59;-17.80;99.90
12384;DHT22;6256;63.808;20.336;2024-01-07T00:43:25;-17.80;99.90
12384;DHT22;6256;63.808;20.336;2024-01-07T00:45:51;-17.80;99.90
12384;DHT22;6256;63.808;20.336;2024-01-07T00:48:16;-17.80;99.90
12384;DHT22;6256;63.808;20.336;2024-01-07T00:50:42;-17.90;99.90
12384;DHT22;6256;63.808;20.336;2024-01-07T00:53:08;-17.90;99.90
12384;DHT22;6256;63.808;20.336;2024-01-07T00:55:34;-18.10;99.90
12384;DHT22;6256;63.808;20.336;2024-01-07T00:58:01;-18.10;99.90
12384;DHT22;6256;63.808;20.336;2024-01-07T01:00:27;-18.20;99.90
12384;DHT22;6256;63.808;20.336;2024-01-07T01:02:54;-18.20;99.90
12384;DHT22;6256;63.808;20.336;2024-01-07T01:05:19;-18.20;99.90
12384;DHT22;6256;63.808;20.336;2024-01-07T01:07:45;-18.20;99.90
12384;DHT22;6256;63.808;20.336;2024-01-07T01:10:11;-18.30;99.90
12384;DHT22;6256;63.808;20.336;2024-01-07T01:12:36;-18.30;99.90
12384;DHT22;6256;63.808;20.336;2024-01-07T01:15:05;-18.20;99.90
12384;DHT22;6256;63.808;20.336;2024-01-07T01:17:31;-18.20;99.90
12384;DHT22;6256;63.808;20.336;2024-01-07T01:19:57;-18.30;99.90
12384;DHT22;6256;63.808;20.336;2024-01-07T01:22:22;-18.30;99.90
12384;DHT22;6256;63.808;20.336;2024-01-07T01:24:48;-18.30;99.90
12384;DHT22;6256;63.808;20.336;2024-01-07T01:27:14;-18.40;99.90
12384;DHT22;6256;63.808;20.336;2024-01-07T01:29:41;-18.40;99.90
12384;DHT22;6256;63.808;20.336;2024-01-07T01:32:06;-18.40;99.90
12384;DHT22;6256;63.808;20.336;2024-01-07T01:34:32;-18.40;99.90
12384;DHT22;6256;63.808;20.336;2024-01-07T01:36:58;-18.40;99.90
12384;DHT22;6256;63.808;20.336;2024-01-07T01:39:23;-18.40;99.90
12384;DHT22;6256;63.808;20.336;2024-01-07T01:41:49;-18.40;99.90
12384;DHT22;6256;63.808;20.336;2024-01-07T01:44:15;-18.40;99.90
12384;DHT22;6256;63.808;20.336;2024-01-07T01:46:40;-18.40;99.90
12384;DHT22;6256;63.808;20.336;2024-01-07T01:49:07;-18.40;99.90
12384;DHT22;6256;63.808;20.336;2024-01-07T01:51:34;-18.40;99.90
12384;DHT22;6256;63.808;20.336;2024-01-07T01:54:01;-18.50;99.90
12384;DHT22;6256;63.808;20.336;2024-01-07T01:56:28;-18.50;99.90
12384;DHT22;6256;63.808;20.336;2024-01-07T01:58:55;-18.40;99.90
12384;DHT22;6256;63.808;20.336;2024-01-07T02:01:22;-18.50;99.90
12384;DHT22;6256;63.808;20.336;2024-01-07T02:03:48;-18.50;99.90
12384;DHT22;6256;63.808;20.336;2024-01-07T02:06:14;-18.50;99.90
12384;DHT22;6256;63.808;20.336;2024-01-07T02:08:41;-18.50;99.90
12384;DHT22;6256;63.808;20.336;2024-01-07T02:11:17;-18.50;99.90
12384;DHT22;6256;63.808;20.336;2024-01-07T02:13:43;-18.50;99.90
12384;DHT22;6256;63.808;20.336;2024-01-07T02:16:09;-18.60;99.90
12384;DHT22;6256;63.808;20.336;2024-01-07T02:18:35;-18.60;99.90
12384;DHT22;6256;63.808;20.336;2024-01-07T02:21:00;-18.50;99.90
12384;DHT22;6256;63.808;20.336;2024-01-07T02:23:26;-18.50;99.90
12384;DHT22;6256;63.808;20.336;2024-01-07T02:25:52;-18.50;99.90
12384;DHT22;6256;63.808;20.336;2024-01-07T02:28:17;-18.50;99.90
12384;DHT22;6256;63.808;20.336;2024-01-07T02:30:43;-18.50;99.90
12384;DHT22;6256;63.808;20.336;2024-01-07T02:33:09;-18.50;99.90
12384;DHT22;6256;63.808;20.336;2024-01-07T02:35:34;-18.50;99.90
12384;DHT22;6256;63.808;20.336;2024-01-07T02:38:00;-18.50;99.90
12384;DHT22;6256;63.808;20.336;2024-01-07T02:40:25;-18.60;99.90
12384;DHT22;6256;63.808;20.336;2024-01-07T02:42:51;-18.60;99.90
12384;DHT22;6256;63.808;20.336;2024-01-07T02:45:17;-18.60;99.90
12384;DHT22;6256;63.808;20.336;2024-01-07T02:47:42;-18.70;99.90
12384;DHT22;6256;63.808;20.336;2024-01-07T02:50:08;-18.70;99.90
12384;DHT22;6256;63.808;20.336;2024-01-07T02:52:34;-18.70;99.90
12384;DHT22;6256;63.808;20.336;2024-01-07T02:54:59;-18.70;99.90
12384;DHT22;6256;63.808;20.336;2024-01-07T02:57:27;-18.70;99.90
12384;DHT22;6256;63.808;20.336;2024-01-07T02:59:52;-18.80;99.90
12384;DHT22;6256;63.808;20.336;2024-01-07T03:02:18;-18.80;99.90
12384;DHT22;6256;63.808;20.336;2024-01-07T03:04:44;-18.80;99.90
12384;DHT22;6256;63.808;20.336;2024-01-07T03:07:10;-18.90;99.90
12384;DHT22;6256;63.808;20.336;2024-01-07T03:09:35;-18.90;99.90
12384;DHT22;6256;63.808;20.336;2024-01-07T03:12:01;-18.90;99.90
12384;DHT22;6256;63.808;20.336;2024-01-07T03:14:27;-18.90;99.90
12384;DHT22;6256;63.808;20.336;2024-01-07T03:16:52;-18.90;99.90
12384;DHT22;6256;63.808;20.336;2024-01-07T03:19:18;-18.90;99.90
12384;DHT22;6256;63.808;20.336;2024-01-07T03:21:44;-18.90;99.90
12384;DHT22;6256;63.808;20.336;2024-01-07T03:24:10;-18.90;99.90
12384;DHT22;6256;63.808;20.336;2024-01-07T03:26:36;-19.00;99.90
12384;DHT22;6256;63.808;20.336;2024-01-07T03:29:02;-18.90;99.90
12384;DHT22;6256;63.808;20.336;2024-01-07T03:31:28;-18.90;99.90
12384;DHT22;6256;63.808;20.336;2024-01-07T03:33:54;-18.80;99.90
12384;DHT22;6256;63.808;20.336;2024-01-07T03:36:20;-18.80;99.90
12384;DHT22;6256;63.808;20.336;2024-01-07T03:38:45;-18.80;99.90
12384;DHT22;6256;63.808;20.336;2024-01-07T03:41:18;-18.80;99.90
12384;DHT22;6256;63.808;20.336;2024-01-07T03:43:48;-18.90;99.90
12384;DHT22;6256;63.808;20.336;2024-01-07T03:46:14;-18.90;99.90
12384;DHT22;6256;63.808;20.336;2024-01-07T03:48:41;-18.90;99.90
12384;DHT22;6256;63.808;20.336;2024-01-07T03:51:06;-18.90;99.90
12384;DHT22;6256;63.808;20.336;2024-01-07T03:53:33;-18.90;99.90
12384;DHT22;6256;63.808;20.336;2024-01-07T03:55:58;-18.80;99.90
12384;DHT22;6256;63.808;20.336;2024-01-07T03:58:24;-18.70;99.90
12384;DHT22;6256;63.808;20.336;2024-01-07T04:00:49;-18.70;99.90
12384;DHT22;6256;63.808;20.336;2024-01-07T04:03:15;-18.80;99.90
12384;DHT22;6256;63.808;20.336;2024-01-07T04:05:41;-18.70;99.90
12384;DHT22;6256;63.808;20.336;2024-01-07T04:08:09;-18.70;99.90
12384;DHT22;6256;63.808;20.336;2024-01-07T04:10:35;-18.70;99.90
12384;DHT22;6256;63.808;20.336;2024-01-07T04:13:01;-18.80;99.90
12384;DHT22;6256;63.808;20.336;2024-01-07T04:15:27;-18.80;99.90
12384;DHT22;6256;63.808;20.336;2024-01-07T04:17:52;-18.80;99.90
12384;DHT22;6256;63.808;20.336;2024-01-07T04:20:18;-18.90;99.90
12384;DHT22;6256;63.808;20.336;2024-01-07T04:22:44;-18.80;99.90
12384;DHT22;6256;63.808;20.336;2024-01-07T04:25:09;-18.90;99.90
12384;DHT22;6256;63.808;20.336;2024-01-07T04:27:36;-18.90;99.90
12384;DHT22;6256;63.808;20.336;2024-01-07T04:30:03;-18.90;99.90
12384;DHT22;6256;63.808;20.336;2024-01-07T04:32:29;-18.90;99.90
12384;DHT22;6256;63.808;20.336;2024-01-07T04:34:54;-18.90;99.90
12384;DHT22;6256;63.808;20.336;2024-01-07T04:37:21;-18.90;99.90
12384;DHT22;6256;63.808;20.336;2024-01-07T04:39:47;-18.80;99.90
12384;DHT22;6256;63.808;20.336;2024-01-07T04:42:13;-18.90;99.90
12384;DHT22;6256;63.808;20.336;2024-01-07T04:44:38;-18.90;99.90
12384;DHT22;6256;63.808;20.336;2024-01-07T04:47:04;-18.80;99.90
12384;DHT22;6256;63.808;20.336;2024-01-07T04:49:30;-18.80;99.90
12384;DHT22;6256;63.808;20.336;2024-01-07T04:51:55;-18.80;99.90
12384;DHT22;6256;63.808;20.336;2024-01-07T04:54:21;-18.80;99.90
12384;DHT22;6256;63.808;20.336;2024-01-07T04:56:46;-18.80;99.90
12384;DHT22;6256;63.808;20.336;2024-01-07T04:59:12;-18.90;99.90
12384;DHT22;6256;63.808;20.336;2024-01-07T05:01:38;-18.90;99.90
12384;DHT22;6256;63.808;20.336;2024-01-07T05:04:05;-18.90;99.90
12384;DHT22;6256;63.808;20.336;2024-01-07T05:06:30;-18.90;99.90
12384;DHT22;6256;63.808;20.336;2024-01-07T05:08:56;-19.00;99.90
12384;DHT22;6256;63.808;20.336;2024-01-07T05:11:22;-19.00;99.90
12384;DHT22;6256;63.808;20.336;2024-01-07T05:13:47;-19.00;99.90
12384;DHT22;6256;63.808;20.336;2024-01-07T05:16:20;-19.00;99.90
12384;DHT22;6256;63.808;20.336;2024-01-07T05:18:45;-19.00;99.90
12384;DHT22;6256;63.808;20.336;2024-01-07T05:21:14;-19.00;99.90
12384;DHT22;6256;63.808;20.336;2024-01-07T05:23:41;-19.10;99.90
12384;DHT22;6256;63.808;20.336;2024-01-07T05:26:07;-19.00;99.90
12384;DHT22;6256;63.808;20.336;2024-01-07T05:28:33;-19.00;99.90
12384;DHT22;6256;63.808;20.336;2024-01-07T05:30:58;-19.00;99.90
12384;DHT22;6256;63.808;20.336;2024-01-07T05:33:24;-19.00;99.90
12384;DHT22;6256;63.808;20.336;2024-01-07T05:35:50;-19.10;99.90
12384;DHT22;6256;63.808;20.336;2024-01-07T05:38:15;-19.10;99.90
12384;DHT22;6256;63.808;20.336;2024-01-07T05:40:41;-19.10;99.90
12384;DHT22;6256;63.808;20.336;2024-01-07T05:43:06;-19.10;99.90
12384;DHT22;6256;63.808;20.336;2024-01-07T05:45:32;-19.20;99.90
12384;DHT22;6256;63.808;20.336;2024-01-07T05:47:58;-19.20;99.90
12384;DHT22;6256;63.808;20.336;2024-01-07T05:50:24;-19.20;99.90
12384;DHT22;6256;63.808;20.336;2024-01-07T05:52:49;-19.20;99.90
12384;DHT22;6256;63.808;20.336;2024-01-07T05:55:15;-19.10;99.90
12384;DHT22;6256;63.808;20.336;2024-01-07T05:57:42;-19.10;99.90
12384;DHT22;6256;63.808;20.336;2024-01-07T06:00:08;-19.00;99.90
12384;DHT22;6256;63.808;20.336;2024-01-07T06:02:36;-19.10;99.90
12384;DHT22;6256;63.808;20.336;2024-01-07T06:05:02;-19.00;99.90
12384;DHT22;6256;63.808;20.336;2024-01-07T06:07:28;-19.00;99.90
12384;DHT22;6256;63.808;20.336;2024-01-07T06:09:55;-19.00;99.90
12384;DHT22;6256;63.808;20.336;2024-01-07T06:12:20;-19.00;99.90
12384;DHT22;6256;63.808;20.336;2024-01-07T06:14:46;-19.00;99.90
12384;DHT22;6256;63.808;20.336;2024-01-07T06:17:12;-19.10;99.90
12384;DHT22;6256;63.808;20.336;2024-01-07T06:19:37;-19.10;99.90
12384;DHT22;6256;63.808;20.336;2024-01-07T06:22:03;-19.10;99.90
12384;DHT22;6256;63.808;20.336;2024-01-07T06:24:29;-19.00;99.90
12384;DHT22;6256;63.808;20.336;2024-01-07T06:26:54;-19.00;99.90
12384;DHT22;6256;63.808;20.336;2024-01-07T06:29:20;-19.00;99.90
12384;DHT22;6256;63.808;20.336;2024-01-07T06:31:46;-19.00;99.90
12384;DHT22;6256;63.808;20.336;2024-01-07T06:34:14;-19.00;99.90
12384;DHT22;6256;63.808;20.336;2024-01-07T06:36:40;-19.10;99.90
12384;DHT22;6256;63.808;20.336;2024-01-07T06:39:09;-19.10;99.90
12384;DHT22;6256;63.808;20.336;2024-01-07T06:41:35;-19.10;99.90
12384;DHT22;6256;63.808;20.336;2024-01-07T06:44:01;-19.10;99.90
12384;DHT22;6256;63.808;20.336;2024-01-07T06:46:27;-19.10;99.90
12384;DHT22;6256;63.808;20.336;2024-01-07T06:48:52;-19.10;99.90
12384;DHT22;6256;63.808;20.336;2024-01-07T06:51:18;-19.10;99.90
12384;DHT22;6256;63.808;20.336;2024-01-07T06:53:43;-19.10;99.90
12384;DHT22;6256;63.808;20.336;2024-01-07T06:56:09;-19.10;99.90
12384;DHT22;6256;63.808;20.336;2024-01-07T06:58:35;-19.20;99.90
12384;DHT22;6256;63.808;20.336;2024-01-07T07:01:00;-19.10;99.90
12384;DHT22;6256;63.808;20.336;2024-01-07T07:03:26;-19.20;99.90
12384;DHT22;6256;63.808;20.336;2024-01-07T07:05:52;-19.20;99.90
12384;DHT22;6256;63.808;20.336;2024-01-07T07:08:17;-19.20;99.90
12384;DHT22;6256;63.808;20.336;2024-01-07T07:10:43;-19.20;99.90
12384;DHT22;6256;63.808;20.336;2024-01-07T07:13:09;-19.10;99.90
12384;DHT22;6256;63.808;20.336;2024-01-07T07:15:35;-19.20;99.90
12384;DHT22;6256;63.808;20.336;2024-01-07T07:18:01;-19.20;99.90
12384;DHT22;6256;63.808;20.336;2024-01-07T07:20:27;-19.20;99.90
12384;DHT22;6256;63.808;20.336;2024-01-07T07:22:52;-19.20;99.90
12384;DHT22;6256;63.808;20.336;2024-01-07T07:25:18;-19.20;99.90
12384;DHT22;6256;63.808;20.336;2024-01-07T07:27:44;-19.20;99.90
12384;DHT22;6256;63.808;20.336;2024-01-07T07:30:10;-19.20;99.90
12384;DHT22;6256;63.808;20.336;2024-01-07T07:32:39;-19.20;99.90
12384;DHT22;6256;63.808;20.336;2024-01-07T07:35:05;-19.20;99.90
12384;DHT22;6256;63.808;20.336;2024-01-07T07:37:33;-19.20;99.90
12384;DHT22;6256;63.808;20.336;2024-01-07T07:39:58;-19.20;99.90
12384;DHT22;6256;63.808;20.336;2024-01-07T07:42:24;-19.20;99.90
12384;DHT22;6256;63.808;20.336;2024-01-07T07:44:50;-19.20;99.90
12384;DHT22;6256;63.808;20.336;2024-01-07T07:47:15;-19.20;99.90
12384;DHT22;6256;63.808;20.336;2024-01-07T07:49:41;-19.10;99.90
12384;DHT22;6256;63.808;20.336;2024-01-07T07:52:08;-19.10;99.90
12384;DHT22;6256;63.808;20.336;2024-01-07T07:54:40;-19.10;99.90
12384;DHT22;6256;63.808;20.336;2024-01-07T07:57:05;-19.10;99.90
12384;DHT22;6256;63.808;20.336;2024-01-07T07:59:31;-19.10;99.90
12384;DHT22;6256;63.808;20.336;2024-01-07T08:01:57;-19.00;99.90
12384;DHT22;6256;63.808;20.336;2024-01-07T08:04:22;-19.00;99.90
12384;DHT22;6256;63.808;20.336;2024-01-07T08:06:48;-19.10;99.90
12384;DHT22;6256;63.808;20.336;2024-01-07T08:09:14;-19.10;99.90
12384;DHT22;6256;63.808;20.336;2024-01-07T08:11:39;-19.10;99.90
12384;DHT22;6256;63.808;20.336;2024-01-07T08:14:06;-19.10;99.90
12384;DHT22;6256;63.808;20.336;2024-01-07T08:16:32;-19.00;99.90
12384;DHT22;6256;63.808;20.336;2024-01-07T08:18:58;-19.00;99.90
12384;DHT22;6256;63.808;20.336;2024-01-07T08:21:24;-19.00;99.90
12384;DHT22;6256;63.808;20.336;2024-01-07T08:23:50;-18.90;99.90
12384;DHT22;6256;63.808;20.336;2024-01-07T08:26:19;-19.00;99.90
12384;DHT22;6256;63.808;20.336;2024-01-07T08:28:45;-18.90;99.90
12384;DHT22;6256;63.808;20.336;2024-01-07T08:31:11;-18.90;99.90
12384;DHT22;6256;63.808;20.336;2024-01-07T08:33:36;-18.90;99.90
12384;DHT22;6256;63.808;20.336;2024-01-07T08:36:02;-18.90;99.90
12384;DHT22;6256;63.808;20.336;2024-01-07T08:38:28;-18.90;99.90
12384;DHT22;6256;63.808;20.336;2024-01-07T08:40:54;-18.90;99.90
12384;DHT22;6256;63.808;20.336;2024-01-07T08:43:20;-18.80;99.90
12384;DHT22;6256;63.808;20.336;2024-01-07T08:45:45;-18.80;99.90
12384;DHT22;6256;63.808;20.336;2024-01-07T08:48:11;-18.70;99.90
12384;DHT22;6256;63.808;20.336;2024-01-07T08:50:38;-18.70;99.90
12384;DHT22;6256;63.808;20.336;2024-01-07T08:53:04;-18.70;99.90
12384;DHT22;6256;63.808;20.336;2024-01-07T08:55:30;-18.60;99.90
12384;DHT22;6256;63.808;20.336;2024-01-07T08:57:56;-18.70;99.90
12384;DHT22;6256;63.808;20.336;2024-01-07T09:00:22;-18.60;99.90
12384;DHT22;6256;63.808;20.336;2024-01-07T09:02:52;-18.60;99.90
12384;DHT22;6256;63.808;20.336;2024-01-07T09:05:18;-18.60;99.90
12384;DHT22;6256;63.808;20.336;2024-01-07T09:07:43;-18.50;99.90
12384;DHT22;6256;63.808;20.336;2024-01-07T09:10:09;-18.50;99.90
12384;DHT22;6256;63.808;20.336;2024-01-07T09:12:37;-18.50;99.90
12384;DHT22;6256;63.808;20.336;2024-01-07T09:15:04;-18.50;99.90
12384;DHT22;6256;63.808;20.336;2024-01-07T09:17:36;-18.50;99.90
12384;DHT22;6256;63.808;20.336;2024-01-07T09:20:07;-18.40;99.90
12384;DHT22;6256;63.808;20.336;2024-01-07T09:22:34;-18.40;99.90
12384;DHT22;6256;63.808;20.336;2024-01-07T09:25:04;-18.40;99.90
12384;DHT22;6256;63.808;20.336;2024-01-07T09:27:31;-18.40;99.90
12384;DHT22;6256;63.808;20.336;2024-01-07T09:29:57;-18.30;99.90
12384;DHT22;6256;63.808;20.336;2024-01-07T09:32:23;-18.30;99.90
12384;DHT22;6256;63.808;20.336;2024-01-07T09:34:48;-18.30;99.90
12384;DHT22;6256;63.808;20.336;2024-01-07T09:37:14;-18.20;99.90
12384;DHT22;6256;63.808;20.336;2024-01-07T09:39:40;-18.20;99.90
12384;DHT22;6256;63.808;20.336;2024-01-07T09:42:33;-18.10;99.90
12384;DHT22;6256;63.808;20.336;2024-01-07T09:45:02;-18.10;99.90
12384;DHT22;6256;63.808;20.336;2024-01-07T09:47:35;-18.20;99.90
12384;DHT22;6256;63.808;20.336;2024-01-07T09:50:01;-18.20;99.90
12384;DHT22;6256;63.808;20.336;2024-01-07T09:52:26;-18.10;99.90
12384;DHT22;6256;63.808;20.336;2024-01-07T09:54:58;-18.00;99.90
12384;DHT22;6256;63.808;20.336;2024-01-07T09:57:23;-18.00;99.90
12384;DHT22;6256;63.808;20.336;2024-01-07T09:59:52;-18.00;99.90
12384;DHT22;6256;63.808;20.336;2024-01-07T10:02:18;-18.00;99.90
12384;DHT22;6256;63.808;20.336;2024-01-07T10:04:45;-17.90;99.90
12384;DHT22;6256;63.808;20.336;2024-01-07T10:07:13;-17.90;99.90
12384;DHT22;6256;63.808;20.336;2024-01-07T10:09:40;-17.80;99.90
12384;DHT22;6256;63.808;20.336;2024-01-07T10:12:08;-17.80;99.90
12384;DHT22;6256;63.808;20.336;2024-01-07T10:14:33;-17.70;99.90
12384;DHT22;6256;63.808;20.336;2024-01-07T10:17:00;-17.80;99.90
12384;DHT22;6256;63.808;20.336;2024-01-07T10:19:25;-17.80;99.90
12384;DHT22;6256;63.808;20.336;2024-01-07T10:22:01;-17.80;99.90
12384;DHT22;6256;63.808;20.336;2024-01-07T10:24:38;-17.80;99.90
12384;DHT22;6256;63.808;20.336;2024-01-07T10:27:05;-17.90;99.90
12384;DHT22;6256;63.808;20.336;2024-01-07T10:29:31;-17.80;99.90
12384;DHT22;6256;63.808;20.336;2024-01-07T10:32:00;-17.90;99.90
12384;DHT22;6256;63.808;20.336;2024-01-07T10:34:36;-17.90;99.90
12384;DHT22;6256;63.808;20.336;2024-01-07T10:37:04;-17.90;99.90
12384;DHT22;6256;63.808;20.336;2024-01-07T10:39:30;-17.80;99.90
12384;DHT22;6256;63.808;20.336;2024-01-07T10:41:56;-17.80;99.90
12384;DHT22;6256;63.808;20.336;2024-01-07T10:44:31;-17.70;99.90
12384;DHT22;6256;63.808;20.336;2024-01-07T10:46:58;-17.70;99.90
12384;DHT22;6256;63.808;20.336;2024-01-07T10:49:27;-17.60;99.90
12384;DHT22;6256;63.808;20.336;2024-01-07T10:52:07;-17.60;99.90
12384;DHT22;6256;63.808;20.336;2024-01-07T10:54:36;-17.60;99.90
12384;DHT22;6256;63.808;20.336;2024-01-07T10:57:19;-17.60;99.90
12384;DHT22;6256;63.808;20.336;2024-01-07T10:59:47;-17.50;99.90
12384;DHT22;6256;63.808;20.336;2024-01-07T11:02:14;-17.50;99.90
12384;DHT22;6256;63.808;20.336;2024-01-07T11:05:09;-17.50;99.90
12384;DHT22;6256;63.808;20.336;2024-01-07T11:07:45;-17.50;99.90
12384;DHT22;6256;63.808;20.336;2024-01-07T11:10:25;-17.50;99.90
12384;DHT22;6256;63.808;20.336;2024-01-07T11:12:55;-17.40;99.90
12384;DHT22;6256;63.808;20.336;2024-01-07T11:18:22;-17.40;99.90
12384;DHT22;6256;63.808;20.336;2024-01-07T11:20:48;-17.50;99.90
12384;DHT22;6256;63.808;20.336;2024-01-07T11:23:30;-17.40;99.90
12384;DHT22;6256;63.808;20.336;2024-01-07T11:26:01;-17.40;99.90
12384;DHT22;6256;63.808;20.336;2024-01-07T11:31:08;-17.40;99.90
12384;DHT22;6256;63.808;20.336;2024-01-07T11:33:36;-17.40;99.90
12384;DHT22;6256;63.808;20.336;2024-01-07T11:36:04;-17.40;99.90
12384;DHT22;6256;63.808;20.336;2024-01-07T11:38:30;-17.40;99.90
12384;DHT22;6256;63.808;20.336;2024-01-07T11:40:57;-17.40;99.90
12384;DHT22;6256;63.808;20.336;2024-01-07T11:43:25;-17.30;99.90
12384;DHT22;6256;63.808;20.336;2024-01-07T11:45:50;-17.40;99.90
12384;DHT22;6256;63.808;20.336;2024-01-07T11:48:18;-17.40;99.90
12384;DHT22;6256;63.808;20.336;2024-01-07T11:50:43;-17.40;99.90
12384;DHT22;6256;63.808;20.336;2024-01-07T11:53:11;-17.30;99.90
12384;DHT22;6256;63.808;20.336;2024-01-07T11:55:38;-17.20;99.90
12384;DHT22;6256;63.808;20.336;2024-01-07T11:58:04;-17.10;99.90
12384;DHT22;6256;63.808;20.336;2024-01-07T12:00:33;-17.10;99.90
12384;DHT22;6256;63.808;20.336;2024-01-07T12:03:03;-17.10;99.90
12384;DHT22;6256;63.808;20.336;2024-01-07T12:05:29;-17.10;99.90
12384;DHT22;6256;63.808;20.336;2024-01-07T12:07:55;-17.10;99.90
12384;DHT22;6256;63.808;20.336;2024-01-07T12:10:23;-17.10;99.90
12384;DHT22;6256;63.808;20.336;2024-01-07T12:12:49;-17.10;99.90
12384;DHT22;6256;63.808;20.336;2024-01-07T12:15:16;-17.10;99.90
12384;DHT22;6256;63.808;20.336;2024-01-07T12:17:42;-17.10;99.90
12384;DHT22;6256;63.808;20.336;2024-01-07T12:20:08;-17.10;99.90
12384;DHT22;6256;63.808;20.336;2024-01-07T12:22:40;-17.00;99.90
12384;DHT22;6256;63.808;20.336;2024-01-07T12:25:07;-17.00;99.90
12384;DHT22;6256;63.808;20.336;2024-01-07T12:27:35;-16.90;99.90
12384;DHT22;6256;63.808;20.336;2024-01-07T12:30:01;-16.90;99.90
12384;DHT22;6256;63.808;20.336;2024-01-07T12:32:29;-16.80;99.90
12384;DHT22;6256;63.808;20.336;2024-01-07T12:34:57;-16.80;99.90
12384;DHT22;6256;63.808;20.336;2024-01-07T12:37:29;-16.80;99.90
12384;DHT22;6256;63.808;20.336;2024-01-07T12:39:55;-16.80;99.90
12384;DHT22;6256;63.808;20.336;2024-01-07T12:42:21;-16.70;99.90
12384;DHT22;6256;63.808;20.336;2024-01-07T12:44:50;-16.70;99.90
12384;DHT22;6256;63.808;20.336;2024-01-07T12:47:16;-16.60;99.90
12384;DHT22;6256;63.808;20.336;2024-01-07T12:49:42;-16.60;99.90
12384;DHT22;6256;63.808;20.336;2024-01-07T12:52:08;-16.60;99.90
12384;DHT22;6256;63.808;20.336;2024-01-07T12:54:34;-16.60;99.90
12384;DHT22;6256;63.808;20.336;2024-01-07T12:57:00;-16.60;99.90
12384;DHT22;6256;63.808;20.336;2024-01-07T12:59:26;-16.60;99.90
12384;DHT22;6256;63.808;20.336;2024-01-07T13:01:52;-16.50;99.90
12384;DHT22;6256;63.808;20.336;2024-01-07T13:04:18;-16.50;99.90
12384;DHT22;6256;63.808;20.336;2024-01-07T13:06:44;-16.50;99.90
12384;DHT22;6256;63.808;20.336;2024-01-07T13:09:12;-16.50;99.90
12384;DHT22;6256;63.808;20.336;2024-01-07T13:11:38;-16.50;99.90
12384;DHT22;6256;63.808;20.336;2024-01-07T13:14:03;-16.50;99.90
12384;DHT22;6256;63.808;20.336;2024-01-07T13:16:29;-16.60;99.90
12384;DHT22;6256;63.808;20.336;2024-01-07T13:18:55;-16.60;99.90
12384;DHT22;6256;63.808;20.336;2024-01-07T13:21:21;-16.60;99.90
12384;DHT22;6256;63.808;20.336;2024-01-07T13:23:47;-16.60;99.90
12384;DHT22;6256;63.808;20.336;2024-01-07T13:26:15;-16.60;99.90
12384;DHT22;6256;63.808;20.336;2024-01-07T13:28:41;-16.60;99.90
12384;DHT22;6256;63.808;20.336;2024-01-07T13:31:08;-16.60;99.90
12384;DHT22;6256;63.808;20.336;2024-01-07T13:33:35;-16.60;99.90
12384;DHT22;6256;63.808;20.336;2024-01-07T13:36:00;-16.60;99.90
12384;DHT22;6256;63.808;20.336;2024-01-07T13:38:28;-16.60;99.90
12384;DHT22;6256;63.808;20.336;2024-01-07T13:40:54;-16.60;99.90
12384;DHT22;6256;63.808;20.336;2024-01-07T13:43:20;-16.60;99.90
12384;DHT22;6256;63.808;20.336;2024-01-07T13:45:45;-16.60;99.90
12384;DHT22;6256;63.808;20.336;2024-01-07T13:48:11;-16.70;99.90
12384;DHT22;6256;63.808;20.336;2024-01-07T13:50:36;-16.60;99.90
12384;DHT22;6256;63.808;20.336;2024-01-07T13:53:02;-16.60;99.90
12384;DHT22;6256;63.808;20.336;2024-01-07T13:55:28;-16.60;99.90
12384;DHT22;6256;63.808;20.336;2024-01-07T13:57:54;-16.60;99.90
12384;DHT22;6256;63.808;20.336;2024-01-07T14:00:21;-16.60;99.90
12384;DHT22;6256;63.808;20.336;2024-01-07T14:02:46;-16.60;99.90
12384;DHT22;6256;63.808;20.336;2024-01-07T14:05:12;-16.60;99.90
12384;DHT22;6256;63.808;20.336;2024-01-07T14:07:38;-16.60;99.90
12384;DHT22;6256;63.808;20.336;2024-01-07T14:10:05;-16.50;99.90
12384;DHT22;6256;63.808;20.336;2024-01-07T14:12:31;-16.60;99.90
12384;DHT22;6256;63.808;20.336;2024-01-07T14:14:57;-16.50;99.90
12384;DHT22;6256;63.808;20.336;2024-01-07T14:17:24;-16.50;99.90
12384;DHT22;6256;63.808;20.336;2024-01-07T14:19:50;-16.50;99.90
12384;DHT22;6256;63.808;20.336;2024-01-07T14:22:21;-16.40;99.90
12384;DHT22;6256;63.808;20.336;2024-01-07T14:24:48;-16.30;99.90
12384;DHT22;6256;63.808;20.336;2024-01-07T14:27:15;-16.20;99.90
12384;DHT22;6256;63.808;20.336;2024-01-07T14:29:41;-16.20;99.90
12384;DHT22;6256;63.808;20.336;2024-01-07T14:32:07;-16.20;99.90
12384;DHT22;6256;63.808;20.336;2024-01-07T14:34:33;-16.10;99.90
12384;DHT22;6256;63.808;20.336;2024-01-07T14:36:59;-16.10;99.90
12384;DHT22;6256;63.808;20.336;2024-01-07T14:39:26;-16.10;99.90
12384;DHT22;6256;63.808;20.336;2024-01-07T14:41:51;-16.10;99.90
12384;DHT22;6256;63.808;20.336;2024-01-07T14:44:17;-16.10;99.90
12384;DHT22;6256;63.808;20.336;2024-01-07T14:46:43;-16.10;99.90
12384;DHT22;6256;63.808;20.336;2024-01-07T14:49:09;-16.00;99.90
12384;DHT22;6256;63.808;20.336;2024-01-07T14:51:35;-16.00;99.90
12384;DHT22;6256;63.808;20.336;2024-01-07T14:54:02;-15.90;99.90
12384;DHT22;6256;63.808;20.336;2024-01-07T14:56:28;-15.90;99.90
12384;DHT22;6256;63.808;20.336;2024-01-07T14:58:54;-15.90;99.90
12384;DHT22;6256;63.808;20.336;2024-01-07T15:01:19;-15.80;99.90
12384;DHT22;6256;63.808;20.336;2024-01-07T15:03:45;-15.80;99.90
12384;DHT22;6256;63.808;20.336;2024-01-07T15:06:11;-15.80;99.90
12384;DHT22;6256;63.808;20.336;2024-01-07T15:08:41;-15.70;99.90
12384;DHT22;6256;63.808;20.336;2024-01-07T15:11:06;-15.70;99.90
12384;DHT22;6256;63.808;20.336;2024-01-07T15:13:35;-15.60;99.90
12384;DHT22;6256;63.808;20.336;2024-01-07T15:16:03;-15.60;99.90
12384;DHT22;6256;63.808;20.336;2024-01-07T15:18:30;-15.60;99.90